createdAt,value
2019-01-02T00:00:06.143Z,55.11
2019-01-02T00:00:32.721Z,54.91
2019-01-02T00:00:57.316Z,54.63
2019-01-02T00:01:22.887Z,54.91
2019-01-02T00:01:48.463Z,55.49
2019-01-02T00:02:14.039Z,55.4
2019-01-02T00:02:39.613Z,55.01
2019-01-02T00:03:05.190Z,55.01
2019-01-02T00:03:30.765Z,54.82
2019-01-02T00:03:56.351Z,55.11
2019-01-02T00:04:21.921Z,54.72
2019-01-02T00:04:47.506Z,55.01
2019-01-02T00:05:13.085Z,55.01
2019-01-02T00:05:38.665Z,55.2
2019-01-02T00:06:04.251Z,55.11
2019-01-02T00:06:29.825Z,55.01
2019-01-02T00:06:55.443Z,54.82
2019-01-02T00:07:21.043Z,55.01
2019-01-02T00:07:46.615Z,55.01
2019-01-02T00:08:12.192Z,55.01
2019-01-02T00:08:37.781Z,55.01
2019-01-02T00:09:03.346Z,55.4
2019-01-02T00:09:28.926Z,55.2
2019-01-02T00:09:54.502Z,54.91
2019-01-02T00:10:20.073Z,54.91
2019-01-02T00:10:45.646Z,55.01
2019-01-02T00:11:11.209Z,54.91
2019-01-02T00:11:36.779Z,54.91
2019-01-02T00:12:02.354Z,55.01
2019-01-02T00:12:27.927Z,55.2
2019-01-02T00:12:53.505Z,55.2
2019-01-02T00:13:19.082Z,54.91
2019-01-02T00:13:44.654Z,54.91
2019-01-02T00:14:10.240Z,55.01
2019-01-02T00:14:35.802Z,54.91
2019-01-02T00:15:01.407Z,55.11
2019-01-02T00:15:26.991Z,55.01
2019-01-02T00:15:52.559Z,55.2
2019-01-02T00:16:18.141Z,55.11
2019-01-02T00:16:43.705Z,54.63
2019-01-02T00:17:09.290Z,54.63
2019-01-02T00:17:34.907Z,55.11
2019-01-02T00:18:00.444Z,55.3
2019-01-02T00:18:26.003Z,54.91
2019-01-02T00:18:51.582Z,55.01
2019-01-02T00:19:17.147Z,54.82
2019-01-02T00:19:42.708Z,54.82
2019-01-02T00:20:08.300Z,54.91
2019-01-02T00:20:33.883Z,54.91
2019-01-02T00:20:59.435Z,54.82
2019-01-02T00:21:25.021Z,55.01
2019-01-02T00:21:50.599Z,55.01
2019-01-02T00:22:16.208Z,55.01
2019-01-02T00:22:41.773Z,55.01
2019-01-02T00:23:07.351Z,54.91
2019-01-02T00:23:32.922Z,55.01
2019-01-02T00:23:58.506Z,55.01
2019-01-02T00:24:24.084Z,55.01
2019-01-02T00:24:49.655Z,55.01
2019-01-02T00:25:15.223Z,55.2
2019-01-02T00:25:40.812Z,55.01
2019-01-02T00:26:06.388Z,55.11
2019-01-02T00:26:31.961Z,55.11
2019-01-02T00:26:57.539Z,55.11
2019-01-02T00:27:23.099Z,55.4
2019-01-02T00:27:48.681Z,54.91
2019-01-02T00:28:14.255Z,54.72
2019-01-02T00:28:39.825Z,54.72
2019-01-02T00:29:05.405Z,54.53
2019-01-02T00:29:30.958Z,54.53
2019-01-02T00:29:56.553Z,54.53
2019-01-02T00:30:22.115Z,54.53
2019-01-02T00:30:47.705Z,54.63
2019-01-02T00:31:13.287Z,54.53
2019-01-02T00:31:38.871Z,54.82
2019-01-02T00:32:04.439Z,54.82
2019-01-02T00:32:30.027Z,54.63
2019-01-02T00:32:55.601Z,55.11
2019-01-02T00:33:21.205Z,54.91
2019-01-02T00:33:46.775Z,55.11
2019-01-02T00:34:12.355Z,55.11
2019-01-02T00:34:37.931Z,54.91
2019-01-02T00:35:03.501Z,54.53
2019-01-02T00:35:29.077Z,54.53
2019-01-02T00:35:54.653Z,54.82
2019-01-02T00:36:20.219Z,54.72
2019-01-02T00:36:45.815Z,54.72
2019-01-02T00:37:11.390Z,54.53
2019-01-02T00:37:36.955Z,54.53
2019-01-02T00:38:02.533Z,55.01
2019-01-02T00:38:28.109Z,54.63
2019-01-02T00:38:53.689Z,54.53
2019-01-02T00:39:19.265Z,54.43
2019-01-02T00:39:44.833Z,54.63
2019-01-02T00:40:10.405Z,54.82
2019-01-02T00:40:35.986Z,54.63
2019-01-02T00:41:01.562Z,54.82
2019-01-02T00:41:27.136Z,54.82
2019-01-02T00:41:52.705Z,54.53
2019-01-02T00:42:18.291Z,54.72
2019-01-02T00:42:43.877Z,54.63
2019-01-02T00:43:09.448Z,54.43
2019-01-02T00:43:35.015Z,54.72
2019-01-02T00:44:00.603Z,54.53
2019-01-02T00:44:26.192Z,54.72
2019-01-02T00:44:51.775Z,54.82
2019-01-02T00:45:22.282Z,54.53
2019-01-02T00:45:42.935Z,54.53
2019-01-02T00:46:08.512Z,54.63
2019-01-02T00:46:34.079Z,54.63
2019-01-02T00:46:59.660Z,54.43
2019-01-02T00:47:25.229Z,54.53
2019-01-02T00:47:50.800Z,54.63
2019-01-02T00:48:16.371Z,54.82
2019-01-02T00:48:41.938Z,54.53
2019-01-02T00:49:07.525Z,54.63
2019-01-02T00:49:33.109Z,54.72
2019-01-02T00:49:58.679Z,54.82
2019-01-02T00:50:24.262Z,54.53
2019-01-02T00:50:49.840Z,54.82
2019-01-02T00:51:15.399Z,54.63
2019-01-02T00:51:40.986Z,54.63
2019-01-02T00:52:06.542Z,54.72
2019-01-02T00:52:32.128Z,54.53
2019-01-02T00:52:57.696Z,54.63
2019-01-02T00:53:23.281Z,54.72
2019-01-02T00:53:48.854Z,54.53
2019-01-02T00:54:14.424Z,54.82
2019-01-02T00:54:40.000Z,54.72
2019-01-02T00:55:05.574Z,54.82
2019-01-02T00:55:31.873Z,54.82
2019-01-02T00:55:56.728Z,54.82
2019-01-02T00:56:22.325Z,54.72
2019-01-02T00:56:47.909Z,54.82
2019-01-02T00:57:13.493Z,54.72
2019-01-02T00:57:39.072Z,54.72
2019-01-02T00:58:04.638Z,54.82
2019-01-02T00:58:30.222Z,54.82
2019-01-02T00:58:55.794Z,54.72
2019-01-02T00:59:21.378Z,54.72
2019-01-02T00:59:46.962Z,54.43
2019-01-02T01:00:12.534Z,54.53
2019-01-02T01:00:38.098Z,54.82
2019-01-02T01:01:03.673Z,54.72
2019-01-02T01:01:29.258Z,54.63
2019-01-02T01:01:54.847Z,54.72
2019-01-02T01:02:20.420Z,54.72
2019-01-02T01:02:45.985Z,54.82
2019-01-02T01:03:11.577Z,54.72
2019-01-02T01:03:37.187Z,54.82
2019-01-02T01:04:02.750Z,54.63
2019-01-02T01:04:28.341Z,54.72
2019-01-02T01:04:53.895Z,54.82
2019-01-02T01:05:19.472Z,54.82
2019-01-02T01:05:45.046Z,54.63
2019-01-02T01:06:10.612Z,54.82
2019-01-02T01:06:36.196Z,54.53
2019-01-02T01:07:01.823Z,54.72
2019-01-02T01:07:27.340Z,54.63
2019-01-02T01:07:52.920Z,54.63
2019-01-02T01:08:18.522Z,54.63
2019-01-02T01:08:44.110Z,54.72
2019-01-02T01:09:09.680Z,54.63
2019-01-02T01:09:35.274Z,54.82
2019-01-02T01:10:00.852Z,54.82
2019-01-02T01:10:26.402Z,54.63
2019-01-02T01:10:51.980Z,54.53
2019-01-02T01:11:17.561Z,54.63
2019-01-02T01:11:43.136Z,54.34
2019-01-02T01:12:08.714Z,54.63
2019-01-02T01:12:34.296Z,54.53
2019-01-02T01:12:59.868Z,54.53
2019-01-02T01:13:25.459Z,54.53
2019-01-02T01:13:51.028Z,54.53
2019-01-02T01:14:16.606Z,54.72
2019-01-02T01:14:42.162Z,54.72
2019-01-02T01:15:07.723Z,54.63
2019-01-02T01:15:33.295Z,54.72
2019-01-02T01:15:58.872Z,54.72
2019-01-02T01:16:24.446Z,54.82
2019-01-02T01:16:50.018Z,54.82
2019-01-02T01:17:15.589Z,54.72
2019-01-02T01:17:41.174Z,54.53
2019-01-02T01:18:06.783Z,54.43
2019-01-02T01:18:32.298Z,54.82
2019-01-02T01:18:57.891Z,54.72
2019-01-02T01:19:23.472Z,54.72
2019-01-02T01:19:49.048Z,54.5
2019-01-02T01:20:15.444Z,54.53
2019-01-02T01:20:40.214Z,54.53
2019-01-02T01:21:05.797Z,54.63
2019-01-02T01:21:31.379Z,54.82
2019-01-02T01:21:56.962Z,54.82
2019-01-02T01:22:22.528Z,54.63
2019-01-02T01:22:48.095Z,54.82
2019-01-02T01:23:13.669Z,54.63
2019-01-02T01:23:39.252Z,54.72
2019-01-02T01:24:04.825Z,54.53
2019-01-02T01:24:30.401Z,54.63
2019-01-02T01:24:55.988Z,54.6
2019-01-02T01:25:21.562Z,54.53
2019-01-02T01:25:47.127Z,54.53
2019-01-02T01:26:12.710Z,54.5
2019-01-02T01:26:38.276Z,54.53
2019-01-02T01:27:03.885Z,54.34
2019-01-02T01:27:29.472Z,54.53
2019-01-02T01:27:55.057Z,54.63
2019-01-02T01:28:20.618Z,54.82
2019-01-02T01:28:46.198Z,54.53
2019-01-02T01:29:11.768Z,54.53
2019-01-02T01:29:37.354Z,54.53
2019-01-02T01:30:02.930Z,54.43
2019-01-02T01:30:28.500Z,54.53
2019-01-02T01:30:54.089Z,54.53
2019-01-02T01:31:19.661Z,54.63
2019-01-02T01:31:45.231Z,54.53
2019-01-02T01:32:10.813Z,54.53
2019-01-02T01:32:36.385Z,54.43
2019-01-02T01:33:02.038Z,54.43
2019-01-02T01:33:27.605Z,54.5
2019-01-02T01:33:53.195Z,54.43
2019-01-02T01:34:18.770Z,54.63
2019-01-02T01:34:44.349Z,54.14
2019-01-02T01:35:09.929Z,54.41
2019-01-02T01:35:35.500Z,54.63
2019-01-02T01:36:01.072Z,54.53
2019-01-02T01:36:26.649Z,54.34
2019-01-02T01:36:52.233Z,54.34
2019-01-02T01:37:17.787Z,54.63
2019-01-02T01:37:43.381Z,54.43
2019-01-02T01:38:08.956Z,54.53
2019-01-02T01:38:34.530Z,54.6
2019-01-02T01:39:00.083Z,54.63
2019-01-02T01:39:25.666Z,54.43
2019-01-02T01:39:51.233Z,54.63
2019-01-02T01:40:16.812Z,54.63
2019-01-02T01:40:42.371Z,54.63
2019-01-02T01:41:07.939Z,54.53
2019-01-02T01:41:33.517Z,54.53
2019-01-02T01:41:59.087Z,54.72
2019-01-02T01:42:24.673Z,54.82
2019-01-02T01:42:50.264Z,54.34
2019-01-02T01:43:15.855Z,54.24
2019-01-02T01:43:41.478Z,54.63
2019-01-02T01:44:07.048Z,54.34
2019-01-02T01:44:32.623Z,54.34
2019-01-02T01:44:58.201Z,54.34
2019-01-02T01:45:23.780Z,54.53
2019-01-02T01:45:49.354Z,54.34
2019-01-02T01:46:14.940Z,54.53
2019-01-02T01:46:40.508Z,54.34
2019-01-02T01:47:06.088Z,54.24
2019-01-02T01:47:31.669Z,54.34
2019-01-02T01:47:57.243Z,54.63
2019-01-02T01:48:22.801Z,54.22
2019-01-02T01:48:48.387Z,54.43
2019-01-02T01:49:13.964Z,54.05
2019-01-02T01:49:39.550Z,54.31
2019-01-02T01:50:05.120Z,54.31
2019-01-02T01:50:30.692Z,54.53
2019-01-02T01:50:56.260Z,54.24
2019-01-02T01:51:21.827Z,54.24
2019-01-02T01:51:47.397Z,54.24
2019-01-02T01:52:12.970Z,54.24
2019-01-02T01:52:38.551Z,54.5
2019-01-02T01:53:04.123Z,54.24
2019-01-02T01:53:29.707Z,54.34
2019-01-02T01:53:55.280Z,54.31
2019-01-02T01:54:20.862Z,54.34
2019-01-02T01:54:46.437Z,54.31
2019-01-02T01:55:12.014Z,54.05
2019-01-02T01:55:37.596Z,54.14
2019-01-02T01:56:03.177Z,54.34
2019-01-02T01:56:28.780Z,54.24
2019-01-02T01:56:54.355Z,54.24
2019-01-02T01:57:19.928Z,54.34
2019-01-02T01:57:45.516Z,54.24
2019-01-02T01:58:11.098Z,54.53
2019-01-02T01:58:36.696Z,54.63
2019-01-02T01:59:02.275Z,54.34
2019-01-02T01:59:27.865Z,54.24
2019-01-02T01:59:53.459Z,54.24
2019-01-02T02:00:19.036Z,54.24
2019-01-02T02:00:44.615Z,54.14
2019-01-02T02:01:10.187Z,54.34
2019-01-02T02:01:35.766Z,54.31
2019-01-02T02:02:01.346Z,54.24
2019-01-02T02:02:26.933Z,54.34
2019-01-02T02:02:52.512Z,54.24
2019-01-02T02:03:18.090Z,54.24
2019-01-02T02:03:43.660Z,54.34
2019-01-02T02:04:09.234Z,54.24
2019-01-02T02:04:34.808Z,54.24
2019-01-02T02:05:00.390Z,54.14
2019-01-02T02:05:25.980Z,54.24
2019-01-02T02:05:51.535Z,54.53
2019-01-02T02:06:17.129Z,54.14
2019-01-02T02:06:42.672Z,54.43
2019-01-02T02:07:08.240Z,54.34
2019-01-02T02:07:33.819Z,54.24
2019-01-02T02:07:59.376Z,54.34
2019-01-02T02:08:24.941Z,53.96
2019-01-02T02:08:50.526Z,54.24
2019-01-02T02:09:16.086Z,54.24
2019-01-02T02:09:41.662Z,54.22
2019-01-02T02:10:07.260Z,54.53
2019-01-02T02:10:32.815Z,54.34
2019-01-02T02:10:58.388Z,54.24
2019-01-02T02:11:23.948Z,54.22
2019-01-02T02:11:49.522Z,54.22
2019-01-02T02:12:15.097Z,54.34
2019-01-02T02:12:40.668Z,54.43
2019-01-02T02:13:06.251Z,54.24
2019-01-02T02:13:31.824Z,54.43
2019-01-02T02:13:57.410Z,54.24
2019-01-02T02:14:22.988Z,54.34
2019-01-02T02:14:48.566Z,54.22
2019-01-02T02:15:14.138Z,54.43
2019-01-02T02:15:39.718Z,54.12
2019-01-02T02:16:05.282Z,54.24
2019-01-02T02:16:30.901Z,54.12
2019-01-02T02:16:56.430Z,54.14
2019-01-02T02:17:22.006Z,54.12
2019-01-02T02:17:47.588Z,54.12
2019-01-02T02:18:13.170Z,54.12
2019-01-02T02:18:40.098Z,54.43
2019-01-02T02:19:05.674Z,54.14
2019-01-02T02:19:31.259Z,53.96
2019-01-02T02:19:56.815Z,54.34
2019-01-02T02:20:22.397Z,54.05
2019-01-02T02:20:47.969Z,54.43
2019-01-02T02:21:13.540Z,54.24
2019-01-02T02:21:39.108Z,54.34
2019-01-02T02:22:04.673Z,54.34
2019-01-02T02:22:30.249Z,54.41
2019-01-02T02:22:55.860Z,54.24
2019-01-02T02:23:21.426Z,54.24
2019-01-02T02:23:47.002Z,54.41
2019-01-02T02:24:12.580Z,54.24
2019-01-02T02:24:38.153Z,54.22
2019-01-02T02:25:03.744Z,54.43
2019-01-02T02:25:29.313Z,54.14
2019-01-02T02:25:54.893Z,54.34
2019-01-02T02:26:20.474Z,54.05
2019-01-02T02:26:46.040Z,53.96
2019-01-02T02:27:11.610Z,54.14
2019-01-02T02:27:37.177Z,54.43
2019-01-02T02:28:02.766Z,54.41
2019-01-02T02:28:28.351Z,54.12
2019-01-02T02:28:53.940Z,54.43
2019-01-02T02:29:19.516Z,54.53
2019-01-02T02:29:45.094Z,54.43
2019-01-02T02:30:10.674Z,54.43
2019-01-02T02:30:36.256Z,54.34
2019-01-02T02:31:01.819Z,54.34
2019-01-02T02:31:27.394Z,54.34
2019-01-02T02:31:52.966Z,54.43
2019-01-02T02:32:18.537Z,54.31
2019-01-02T02:32:44.105Z,54.24
2019-01-02T02:33:09.683Z,54.34
2019-01-02T02:33:35.266Z,54.14
2019-01-02T02:34:00.848Z,54.14
2019-01-02T02:34:26.417Z,54.41
2019-01-02T02:34:51.978Z,54.43
2019-01-02T02:35:17.554Z,54.43
2019-01-02T02:35:43.129Z,54.24
2019-01-02T02:36:08.708Z,54.43
2019-01-02T02:36:34.272Z,54.34
2019-01-02T02:36:59.837Z,53.92
2019-01-02T02:37:25.413Z,54.43
2019-01-02T02:37:50.985Z,54.34
2019-01-02T02:38:16.559Z,54.34
2019-01-02T02:38:42.150Z,53.92
2019-01-02T02:39:07.707Z,54.22
2019-01-02T02:39:33.287Z,54.34
2019-01-02T02:39:58.870Z,53.96
2019-01-02T02:40:24.450Z,53.96
2019-01-02T02:40:50.045Z,54.31
2019-01-02T02:41:15.617Z,54.43
2019-01-02T02:41:41.198Z,54.43
2019-01-02T02:42:06.773Z,54.31
2019-01-02T02:42:32.345Z,54.34
2019-01-02T02:42:57.931Z,54.41
2019-01-02T02:43:23.505Z,54.53
2019-01-02T02:43:49.059Z,54.22
2019-01-02T02:44:14.627Z,54.43
2019-01-02T02:44:40.189Z,54.34
2019-01-02T02:45:05.770Z,54.22
2019-01-02T02:45:31.344Z,54.53
2019-01-02T02:45:56.907Z,54.22
2019-01-02T02:46:22.489Z,54.53
2019-01-02T02:46:48.074Z,54.34
2019-01-02T02:47:13.641Z,54.31
2019-01-02T02:47:39.208Z,54.22
2019-01-02T02:48:04.795Z,54.5
2019-01-02T02:48:30.362Z,54.24
2019-01-02T02:48:55.929Z,54.24
2019-01-02T02:49:21.505Z,54.24
2019-01-02T02:49:47.086Z,54.34
2019-01-02T02:50:12.656Z,54.34
2019-01-02T02:50:38.237Z,54.31
2019-01-02T02:51:03.829Z,54.53
2019-01-02T02:51:29.393Z,54.41
2019-01-02T02:51:54.973Z,54.43
2019-01-02T02:52:20.553Z,54.5
2019-01-02T02:52:46.135Z,54.43
2019-01-02T02:53:11.705Z,54.34
2019-01-02T02:53:37.303Z,54.43
2019-01-02T02:54:02.855Z,54.53
2019-01-02T02:54:28.439Z,54.53
2019-01-02T02:54:54.013Z,54.22
2019-01-02T02:55:19.611Z,54.43
2019-01-02T02:55:45.202Z,54.34
2019-01-02T02:56:10.797Z,54.5
2019-01-02T02:56:36.375Z,54.34
2019-01-02T02:57:02.001Z,54.43
2019-01-02T02:57:27.579Z,54.43
2019-01-02T02:57:53.159Z,54.63
2019-01-02T02:58:18.736Z,54.43
2019-01-02T02:58:44.301Z,54.53
2019-01-02T02:59:09.863Z,54.43
2019-01-02T02:59:35.445Z,54.5
2019-01-02T03:00:01.019Z,54.41
2019-01-02T03:00:26.609Z,54.22
2019-01-02T03:00:52.183Z,54.43
2019-01-02T03:01:17.759Z,54.53
2019-01-02T03:01:43.312Z,54.5
2019-01-02T03:02:08.899Z,54.41
2019-01-02T03:02:34.480Z,54.53
2019-01-02T03:03:00.114Z,54.53
2019-01-02T03:03:25.705Z,54.43
2019-01-02T03:03:51.275Z,54.5
2019-01-02T03:04:16.857Z,54.43
2019-01-02T03:04:42.443Z,54.43
2019-01-02T03:05:08.021Z,54.43
2019-01-02T03:05:33.588Z,54.43
2019-01-02T03:05:59.169Z,54.43
2019-01-02T03:06:26.588Z,54.34
2019-01-02T03:06:52.232Z,54.5
2019-01-02T03:07:15.920Z,54.41
2019-01-02T03:07:41.492Z,54.53
2019-01-02T03:08:07.078Z,54.53
2019-01-02T03:08:32.637Z,54.34
2019-01-02T03:08:58.222Z,54.41
2019-01-02T03:09:23.800Z,54.24
2019-01-02T03:09:49.381Z,54.41
2019-01-02T03:10:14.951Z,54.43
2019-01-02T03:10:40.566Z,54.53
2019-01-02T03:11:06.085Z,54.5
2019-01-02T03:11:31.658Z,54.43
2019-01-02T03:11:57.218Z,54.6
2019-01-02T03:12:22.838Z,54.31
2019-01-02T03:12:48.378Z,54.5
2019-01-02T03:13:13.974Z,54.53
2019-01-02T03:13:39.556Z,54.43
2019-01-02T03:14:05.131Z,54.41
2019-01-02T03:14:30.709Z,54.41
2019-01-02T03:14:56.286Z,54.63
2019-01-02T03:15:21.861Z,54.41
2019-01-02T03:15:47.436Z,54.5
2019-01-02T03:16:13.019Z,54.53
2019-01-02T03:16:38.596Z,54.41
2019-01-02T03:17:04.158Z,54.41
2019-01-02T03:17:29.730Z,54.5
2019-01-02T03:17:55.296Z,54.41
2019-01-02T03:18:20.878Z,54.69
2019-01-02T03:18:46.454Z,54.14
2019-01-02T03:19:12.021Z,53.57
2019-01-02T03:19:37.614Z,54.31
2019-01-02T03:20:03.189Z,54.72
2019-01-02T03:20:28.754Z,54.22
2019-01-02T03:20:54.324Z,54.53
2019-01-02T03:21:19.890Z,54.24
2019-01-02T03:21:45.460Z,54.41
2019-01-02T03:22:11.052Z,54.43
2019-01-02T03:22:36.639Z,54.41
2019-01-02T03:23:02.208Z,54.43
2019-01-02T03:23:27.753Z,54.41
2019-01-02T03:23:53.326Z,54.43
2019-01-02T03:24:18.898Z,54.41
2019-01-02T03:24:44.476Z,54.31
2019-01-02T03:25:10.044Z,54.43
2019-01-02T03:25:35.614Z,54.43
2019-01-02T03:26:01.196Z,54.41
2019-01-02T03:26:26.772Z,54.43
2019-01-02T03:26:52.342Z,54.24
2019-01-02T03:27:17.914Z,54.53
2019-01-02T03:27:43.486Z,54.43
2019-01-02T03:28:09.066Z,54.22
2019-01-02T03:28:34.630Z,54.6
2019-01-02T03:29:00.206Z,54.69
2019-01-02T03:29:25.780Z,54.41
2019-01-02T03:29:51.356Z,54.31
2019-01-02T03:30:16.953Z,54.53
2019-01-02T03:30:42.525Z,54.12
2019-01-02T03:31:08.093Z,54.14
2019-01-02T03:31:33.680Z,54.22
2019-01-02T03:31:59.263Z,54.05
2019-01-02T03:32:24.837Z,54.5
2019-01-02T03:32:50.422Z,54.31
2019-01-02T03:33:16.009Z,54.31
2019-01-02T03:33:41.592Z,54.41
2019-01-02T03:34:07.159Z,54.5
2019-01-02T03:34:32.740Z,54.41
2019-01-02T03:34:58.296Z,54.24
2019-01-02T03:35:23.863Z,54.5
2019-01-02T03:35:49.446Z,54.41
2019-01-02T03:36:15.014Z,54.41
2019-01-02T03:36:40.586Z,54.41
2019-01-02T03:37:06.154Z,54.41
2019-01-02T03:37:31.736Z,54.6
2019-01-02T03:37:57.295Z,54.22
2019-01-02T03:38:22.878Z,54.02
2019-01-02T03:38:48.451Z,54.12
2019-01-02T03:39:14.035Z,54.69
2019-01-02T03:39:39.599Z,54.24
2019-01-02T03:40:05.198Z,54.22
2019-01-02T03:40:30.766Z,54.02
2019-01-02T03:40:56.368Z,53.96
2019-01-02T03:41:21.952Z,54.05
2019-01-02T03:41:47.535Z,54.05
2019-01-02T03:42:13.102Z,54.12
2019-01-02T03:42:38.661Z,54.05
2019-01-02T03:43:04.248Z,54.05
2019-01-02T03:43:29.830Z,54.05
2019-01-02T03:43:55.415Z,54.02
2019-01-02T03:44:20.984Z,54.69
2019-01-02T03:44:46.567Z,54.22
2019-01-02T03:45:12.124Z,54.14
2019-01-02T03:45:37.720Z,54.12
2019-01-02T03:46:03.295Z,54.05
2019-01-02T03:46:28.869Z,54.12
2019-01-02T03:46:54.460Z,54.12
2019-01-02T03:47:20.036Z,53.92
2019-01-02T03:47:45.621Z,54.02
2019-01-02T03:48:11.180Z,53.83
2019-01-02T03:48:36.773Z,54.02
2019-01-02T03:49:02.367Z,54.02
2019-01-02T03:49:27.945Z,53.57
2019-01-02T03:49:53.541Z,54.02
2019-01-02T03:50:19.100Z,54.05
2019-01-02T03:50:44.656Z,53.92
2019-01-02T03:51:10.235Z,53.92
2019-01-02T03:51:35.805Z,53.74
2019-01-02T03:52:01.374Z,54.02
2019-01-02T03:52:26.926Z,54.02
2019-01-02T03:52:52.505Z,54.05
2019-01-02T03:53:18.081Z,53.92
2019-01-02T03:53:43.692Z,54.12
2019-01-02T03:54:09.206Z,54.02
2019-01-02T03:54:34.783Z,53.83
2019-01-02T03:55:00.359Z,53.83
2019-01-02T03:55:25.934Z,53.83
2019-01-02T03:55:51.517Z,54.12
2019-01-02T03:56:17.093Z,54.02
2019-01-02T03:56:42.673Z,54.02
2019-01-02T03:57:08.258Z,54.12
2019-01-02T03:57:33.845Z,54.12
2019-01-02T03:57:59.419Z,54.02
2019-01-02T03:58:24.991Z,54.02
2019-01-02T03:58:50.562Z,54.02
2019-01-02T03:59:16.149Z,54.02
2019-01-02T03:59:41.713Z,54.02
2019-01-02T04:00:07.291Z,54.02
2019-01-02T04:00:32.879Z,53.74
2019-01-02T04:00:58.464Z,53.83
2019-01-02T04:01:24.033Z,53.83
2019-01-02T04:01:49.620Z,53.74
2019-01-02T04:02:15.179Z,54.02
2019-01-02T04:02:40.754Z,53.83
2019-01-02T04:03:06.314Z,53.83
2019-01-02T04:03:31.885Z,53.83
2019-01-02T04:03:57.456Z,54.12
2019-01-02T04:04:23.034Z,53.74
2019-01-02T04:04:48.617Z,53.74
2019-01-02T04:05:14.191Z,53.83
2019-01-02T04:05:39.759Z,54.02
2019-01-02T04:06:05.352Z,54.12
2019-01-02T04:06:30.941Z,53.74
2019-01-02T04:06:56.510Z,54.02
2019-01-02T04:07:22.078Z,53.83
2019-01-02T04:07:47.663Z,53.45
2019-01-02T04:08:13.232Z,53.92
2019-01-02T04:08:38.802Z,53.83
2019-01-02T04:09:04.373Z,53.92
2019-01-02T04:09:29.949Z,53.83
2019-01-02T04:09:55.531Z,54.02
2019-01-02T04:10:21.106Z,54.22
2019-01-02T04:10:46.705Z,53.83
2019-01-02T04:11:12.262Z,53.92
2019-01-02T04:11:37.832Z,53.64
2019-01-02T04:12:03.389Z,53.83
2019-01-02T04:12:28.954Z,54.02
2019-01-02T04:12:54.524Z,54.02
2019-01-02T04:13:20.121Z,53.92
2019-01-02T04:13:45.696Z,53.92
2019-01-02T04:14:11.256Z,53.83
2019-01-02T04:14:36.867Z,53.74
2019-01-02T04:15:02.459Z,53.92
2019-01-02T04:15:28.030Z,53.92
2019-01-02T04:15:53.606Z,54.12
2019-01-02T04:16:19.198Z,54.02
2019-01-02T04:16:44.774Z,53.92
2019-01-02T04:17:10.358Z,54.22
2019-01-02T04:17:35.925Z,53.92
2019-01-02T04:18:01.505Z,54.02
2019-01-02T04:18:27.066Z,53.92
2019-01-02T04:18:52.637Z,54.02
2019-01-02T04:19:18.220Z,53.92
2019-01-02T04:19:43.798Z,53.54
2019-01-02T04:20:09.396Z,53.92
2019-01-02T04:20:34.946Z,53.92
2019-01-02T04:21:00.494Z,53.92
2019-01-02T04:21:26.062Z,53.83
2019-01-02T04:21:51.634Z,53.64
2019-01-02T04:22:17.216Z,54.02
2019-01-02T04:22:42.787Z,54.12
2019-01-02T04:23:08.361Z,54.12
2019-01-02T04:23:33.920Z,54.12
2019-01-02T04:23:59.497Z,53.83
2019-01-02T04:24:25.065Z,53.92
2019-01-02T04:24:50.645Z,53.83
2019-01-02T04:25:16.216Z,53.74
2019-01-02T04:25:41.796Z,53.92
2019-01-02T04:26:07.372Z,53.74
2019-01-02T04:26:32.933Z,53.64
2019-01-02T04:26:58.515Z,54.12
2019-01-02T04:27:24.092Z,54.12
2019-01-02T04:27:49.666Z,53.74
2019-01-02T04:28:15.233Z,54.02
2019-01-02T04:28:40.820Z,53.83
2019-01-02T04:29:06.411Z,53.83
2019-01-02T04:29:32.023Z,54.02
2019-01-02T04:29:57.644Z,53.92
2019-01-02T04:30:23.218Z,53.45
2019-01-02T04:30:48.785Z,53.64
2019-01-02T04:31:14.348Z,53.92
2019-01-02T04:31:39.918Z,53.64
2019-01-02T04:32:05.549Z,53.92
2019-01-02T04:32:31.146Z,53.92
2019-01-02T04:32:56.698Z,53.92
2019-01-02T04:33:22.262Z,53.74
2019-01-02T04:33:47.828Z,54.12
2019-01-02T04:34:13.391Z,53.92
2019-01-02T04:34:38.968Z,53.74
2019-01-02T04:35:04.534Z,53.92
2019-01-02T04:35:30.114Z,53.74
2019-01-02T04:35:55.692Z,54.02
2019-01-02T04:36:21.283Z,54.22
2019-01-02T04:36:46.854Z,53.83
2019-01-02T04:37:12.431Z,54.02
2019-01-02T04:37:38.017Z,54.12
2019-01-02T04:38:03.590Z,53.83
2019-01-02T04:38:29.164Z,53.92
2019-01-02T04:38:54.743Z,53.92
2019-01-02T04:39:20.323Z,53.92
2019-01-02T04:39:45.895Z,53.45
2019-01-02T04:40:11.459Z,53.92
2019-01-02T04:40:37.033Z,53.54
2019-01-02T04:41:02.610Z,53.86
2019-01-02T04:41:28.179Z,53.54
2019-01-02T04:41:53.749Z,53.54
2019-01-02T04:42:19.361Z,53.54
2019-01-02T04:42:44.936Z,53.96
2019-01-02T04:43:10.515Z,53.74
2019-01-02T04:43:36.119Z,53.76
2019-01-02T04:44:01.691Z,53.76
2019-01-02T04:44:27.261Z,53.64
2019-01-02T04:44:52.834Z,53.92
2019-01-02T04:45:18.443Z,53.57
2019-01-02T04:45:44.004Z,53.74
2019-01-02T04:46:09.642Z,53.86
2019-01-02T04:46:35.224Z,53.76
2019-01-02T04:47:00.802Z,53.57
2019-01-02T04:47:26.397Z,53.47
2019-01-02T04:47:51.977Z,53.66
2019-01-02T04:48:17.531Z,54.24
2019-01-02T04:48:43.106Z,53.74
2019-01-02T04:49:08.676Z,53.96
2019-01-02T04:49:34.233Z,53.66
2019-01-02T04:49:59.804Z,53.86
2019-01-02T04:50:25.406Z,53.66
2019-01-02T04:50:50.978Z,53.66
2019-01-02T04:51:16.556Z,53.66
2019-01-02T04:51:42.127Z,53.76
2019-01-02T04:52:07.713Z,53.66
2019-01-02T04:52:33.301Z,53.86
2019-01-02T04:52:58.888Z,53.76
2019-01-02T04:53:24.464Z,53.66
2019-01-02T04:53:50.033Z,53.96
2019-01-02T04:54:15.608Z,53.76
2019-01-02T04:54:41.191Z,53.96
2019-01-02T04:55:06.767Z,53.86
2019-01-02T04:55:32.336Z,53.64
2019-01-02T04:55:57.919Z,53.66
2019-01-02T04:56:23.493Z,53.76
2019-01-02T04:56:49.077Z,53.86
2019-01-02T04:57:14.659Z,53.86
2019-01-02T04:57:40.217Z,53.86
2019-01-02T04:58:05.786Z,53.66
2019-01-02T04:58:31.359Z,53.86
2019-01-02T04:58:56.943Z,53.66
2019-01-02T04:59:22.511Z,53.64
2019-01-02T04:59:48.080Z,53.76
2019-01-02T05:00:13.643Z,53.76
2019-01-02T05:00:39.221Z,53.64
2019-01-02T05:01:04.827Z,53.66
2019-01-02T05:01:30.429Z,53.83
2019-01-02T05:01:56.009Z,53.76
2019-01-02T05:02:21.581Z,53.66
2019-01-02T05:02:47.195Z,53.86
2019-01-02T05:03:12.768Z,53.66
2019-01-02T05:03:38.345Z,53.47
2019-01-02T05:04:03.916Z,53.86
2019-01-02T05:04:29.494Z,53.47
2019-01-02T05:04:55.075Z,53.47
2019-01-02T05:05:20.664Z,53.66
2019-01-02T05:05:46.232Z,53.76
2019-01-02T05:06:11.812Z,53.66
2019-01-02T05:06:37.388Z,53.57
2019-01-02T05:07:02.941Z,53.76
2019-01-02T05:07:28.510Z,53.76
2019-01-02T05:07:54.074Z,53.86
2019-01-02T05:08:19.653Z,53.66
2019-01-02T05:08:45.221Z,53.86
2019-01-02T05:09:10.797Z,53.86
2019-01-02T05:09:36.367Z,53.86
2019-01-02T05:10:01.956Z,53.76
2019-01-02T05:10:27.515Z,53.47
2019-01-02T05:10:53.095Z,53.47
2019-01-02T05:11:18.692Z,53.57
2019-01-02T05:11:44.298Z,54.53
2019-01-02T05:12:09.822Z,53.86
2019-01-02T05:12:35.404Z,54.63
2019-01-02T05:13:00.984Z,53.66
2019-01-02T05:13:26.561Z,53.66
2019-01-02T05:13:52.126Z,53.86
2019-01-02T05:14:17.696Z,53.66
2019-01-02T05:14:43.285Z,53.66
2019-01-02T05:15:08.852Z,53.66
2019-01-02T05:15:34.419Z,53.47
2019-01-02T05:15:59.996Z,53.47
2019-01-02T05:16:25.559Z,53.47
2019-01-02T05:16:51.144Z,53.76
2019-01-02T05:17:16.718Z,53.57
2019-01-02T05:17:42.317Z,53.66
2019-01-02T05:18:07.910Z,53.66
2019-01-02T05:18:33.493Z,53.66
2019-01-02T05:18:59.062Z,53.86
2019-01-02T05:19:24.639Z,53.96
2019-01-02T05:19:50.210Z,53.86
2019-01-02T05:20:15.782Z,53.76
2019-01-02T05:20:41.364Z,53.66
2019-01-02T05:21:06.958Z,53.86
2019-01-02T05:21:32.522Z,53.76
2019-01-02T05:21:58.086Z,53.76
2019-01-02T05:22:23.662Z,53.76
2019-01-02T05:22:49.239Z,53.57
2019-01-02T05:23:14.796Z,53.66
2019-01-02T05:23:40.363Z,53.76
2019-01-02T05:24:05.919Z,53.57
2019-01-02T05:24:31.490Z,53.66
2019-01-02T05:24:57.076Z,53.76
2019-01-02T05:25:22.652Z,53.57
2019-01-02T05:25:48.241Z,53.66
2019-01-02T05:26:13.810Z,53.66
2019-01-02T05:26:39.380Z,53.57
2019-01-02T05:27:04.945Z,53.57
2019-01-02T05:27:30.516Z,53.76
2019-01-02T05:27:56.098Z,54.43
2019-01-02T05:28:21.689Z,53.66
2019-01-02T05:28:47.260Z,53.76
2019-01-02T05:29:12.828Z,53.57
2019-01-02T05:29:38.402Z,53.47